Time;durP1;ratioP1;P1;durP2;ratioP2;P2;SDS_P1;SDS_P2;PMS_P1;PMS_P2;Temp;Humidity;BMP_temperature;BMP_pressure;BME280_temperature;BME280_humidity;BME280_pressure;Samples;Min_cycle;Max_cycle;Signal;HPM_P1;HPM_P2
2021/03/06 00:00:30;;;;;;;9.30;4.57;;;;;;;;;;5058524;28;20192;-73
2021/03/06 00:03:20;;;;;;;7.65;4.88;;;;;;;;;;5049523;28;20293;-74
2021/03/06 00:05:46;;;;;;;9.52;4.20;;;;;;;;;;5041597;28;20197;-74
2021/03/06 00:08:12;;;;;;;7.47;4.50;;;;;;;;;;5050082;28;20213;-74
2021/03/06 00:10:39;;;;;;;5.80;4.13;;;;;;;;;;5049828;28;20204;-74
2021/03/06 00:13:05;;;;;;;7.22;4.20;;;;;;;;;;5056973;28;20262;-75
2021/03/06 00:15:31;;;;;;;8.63;4.57;;;;;;;;;;5055110;28;20181;-74
2021/03/06 00:17:57;;;;;;;6.60;3.67;;;;;;;;;;5050204;28;20216;-74
2021/03/06 00:20:23;;;;;;;8.80;4.30;;;;;;;;;;5048718;28;20633;-73
2021/03/06 00:22:50;;;;;;;12.68;5.18;;;;;;;;;;5048986;28;20739;-74
2021/03/06 00:25:17;;;;;;;7.07;3.70;;;;;;;;;;5049663;28;20189;-74
2021/03/06 00:27:43;;;;;;;9.57;4.13;;;;;;;;;;5049813;28;20199;-74
2021/03/06 00:30:10;;;;;;;11.20;3.88;;;;;;;;;;5049312;28;20204;-77
2021/03/06 00:32:37;;;;;;;7.35;3.80;;;;;;;;;;5051936;28;20675;-73
2021/03/06 00:35:03;;;;;;;8.30;4.20;;;;;;;;;;5056498;28;20176;-74
2021/03/06 00:37:29;;;;;;;8.45;3.55;;;;;;;;;;5069635;28;20184;-75
2021/03/06 00:39:55;;;;;;;10.82;3.78;;;;;;;;;;5053940;28;20184;-72
2021/03/06 00:42:21;;;;;;;4.95;3.22;;;;;;;;;;5069354;28;20648;-74
2021/03/06 00:44:47;;;;;;;8.00;3.92;;;;;;;;;;5056373;28;20221;-73
2021/03/06 00:47:13;;;;;;;9.45;3.53;;;;;;;;;;5068107;28;20677;-73
2021/03/06 00:49:40;;;;;;;5.35;3.15;;;;;;;;;;5056594;28;20199;-74
2021/03/06 00:52:06;;;;;;;6.30;3.70;;;;;;;;;;5049820;28;20192;-74
2021/03/06 00:54:32;;;;;;;5.35;3.00;;;;;;;;;;5048758;28;20283;-73
2021/03/06 00:56:58;;;;;;;5.22;2.90;;;;;;;;;;5049637;28;20181;-73
2021/03/06 00:59:24;;;;;;;6.00;3.20;;;;;;;;;;5048976;28;20650;-73
2021/03/06 01:01:50;;;;;;;9.13;3.50;;;;;;;;;;5048091;28;20212;-73
2021/03/06 01:04:16;;;;;;;6.57;3.38;;;;;;;;;;5048720;28;20955;-73
2021/03/06 01:06:42;;;;;;;5.38;3.00;;;;;;;;;;5049256;28;20276;-74
2021/03/06 01:09:08;;;;;;;9.02;3.42;;;;;;;;;;5049168;28;20196;-73
2021/03/06 01:11:34;;;;;;;8.15;3.30;;;;;;;;;;5049413;28;20176;-74
2021/03/06 01:14:00;;;;;;;7.40;3.08;;;;;;;;;;5066353;28;20192;-73
2021/03/06 01:16:26;;;;;;;7.75;2.90;;;;;;;;;;5049086;28;20234;-73
2021/03/06 01:18:52;;;;;;;4.65;2.80;;;;;;;;;;5047623;28;20713;-72
2021/03/06 01:21:18;;;;;;;5.97;2.75;;;;;;;;;;5049011;28;20199;-73
2021/03/06 01:23:44;;;;;;;7.93;3.40;;;;;;;;;;5048840;28;20208;-73
2021/03/06 01:26:10;;;;;;;8.05;2.75;;;;;;;;;;5048895;28;20669;-74
2021/03/06 01:28:36;;;;;;;9.15;3.25;;;;;;;;;;5048806;28;20197;-73
2021/03/06 01:31:02;;;;;;;11.02;4.00;;;;;;;;;;5048679;28;20227;-74
2021/03/06 01:33:28;;;;;;;6.05;3.20;;;;;;;;;;5047459;28;20567;-74
2021/03/06 01:35:54;;;;;;;4.80;3.30;;;;;;;;;;5047430;28;20189;-74
2021/03/06 01:38:20;;;;;;;10.65;3.35;;;;;;;;;;5045429;28;20187;-72
2021/03/06 01:40:46;;;;;;;7.22;3.60;;;;;;;;;;5047409;28;20181;-74
2021/03/06 01:43:13;;;;;;;5.53;3.45;;;;;;;;;;5054892;28;20204;-73
2021/03/06 01:45:39;;;;;;;4.88;3.10;;;;;;;;;;5048801;28;20165;-73
2021/03/06 01:48:06;;;;;;;9.90;4.13;;;;;;;;;;5049069;28;20228;-72
2021/03/06 01:50:32;;;;;;;10.27;3.50;;;;;;;;;;5050638;28;20223;-72
2021/03/06 01:52:59;;;;;;;14.27;5.07;;;;;;;;;;5052171;28;20586;-75
2021/03/06 01:55:26;;;;;;;6.90;3.63;;;;;;;;;;5053179;28;20534;-75
2021/03/06 01:57:52;;;;;;;8.25;3.20;;;;;;;;;;5053233;28;20174;-73
2021/03/06 02:00:23;;;;;;;8.88;3.30;;;;;;;;;;5051889;28;20223;-72
2021/03/06 02:02:52;;;;;;;4.50;2.45;;;;;;;;;;5051771;28;20197;-73
2021/03/06 02:05:18;;;;;;;5.97;3.28;;;;;;;;;;5052353;28;20200;-74
2021/03/06 02:07:45;;;;;;;10.15;2.85;;;;;;;;;;5052247;28;20197;-74
2021/03/06 02:10:15;;;;;;;4.45;2.50;;;;;;;;;;5052318;28;20192;-73
2021/03/06 02:13:00;;;;;;;11.10;3.38;;;;;;;;;;5056139;28;20280;-73
2021/03/06 02:15:26;;;;;;;6.93;2.80;;;;;;;;;;5058442;28;20180;-74
2021/03/06 02:17:54;;;;;;;4.70;2.90;;;;;;;;;;5056094;28;20240;-75
2021/03/06 02:20:23;;;;;;;7.40;3.50;;;;;;;;;;5056025;28;20263;-75
2021/03/06 02:22:49;;;;;;;8.38;3.10;;;;;;;;;;5055308;28;20197;-74
2021/03/06 02:25:28;;;;;;;5.65;2.70;;;;;;;;;;5055792;28;20203;-74
2021/03/06 02:28:03;;;;;;;6.57;2.80;;;;;;;;;;5051312;28;20216;-74
2021/03/06 02:30:30;;;;;;;5.45;2.80;;;;;;;;;;5057771;28;20184;-74
2021/03/06 02:32:58;;;;;;;8.85;2.90;;;;;;;;;;5055908;28;20196;-74
2021/03/06 02:35:26;;;;;;;8.45;2.75;;;;;;;;;;5055677;28;20181;-74
2021/03/06 02:37:55;;;;;;;5.20;3.00;;;;;;;;;;5051499;28;20573;-74
2021/03/06 02:40:22;;;;;;;9.48;2.97;;;;;;;;;;5047637;28;20177;-74
2021/03/06 02:42:48;;;;;;;7.00;2.80;;;;;;;;;;5054861;28;20696;-75
2021/03/06 02:45:15;;;;;;;5.35;2.78;;;;;;;;;;5055671;28;20181;-74
2021/03/06 02:47:41;;;;;;;4.18;2.70;;;;;;;;;;5054977;28;20523;-72
2021/03/06 02:50:09;;;;;;;9.38;3.85;;;;;;;;;;5055107;28;20188;-74
2021/03/06 02:52:35;;;;;;;5.55;2.40;;;;;;;;;;5051531;28;20200;-75
2021/03/06 02:55:01;;;;;;;4.95;2.70;;;;;;;;;;5055036;28;20529;-74
2021/03/06 02:57:43;;;;;;;5.57;2.35;;;;;;;;;;5055136;28;20181;-75
2021/03/06 03:00:09;;;;;;;8.63;2.92;;;;;;;;;;5053470;28;20492;-74
2021/03/06 03:02:41;;;;;;;6.38;2.35;;;;;;;;;;5054875;28;20258;-74
2021/03/06 03:05:22;;;;;;;11.40;3.00;;;;;;;;;;5054496;28;20224;-74
2021/03/06 03:07:50;;;;;;;6.72;2.40;;;;;;;;;;5051999;28;20308;-75
2021/03/06 03:10:17;;;;;;;10.73;2.60;;;;;;;;;;5053712;28;20701;-74
2021/03/06 03:12:47;;;;;;;4.85;2.30;;;;;;;;;;5059642;28;20204;-73
2021/03/06 03:15:18;;;;;;;3.30;2.25;;;;;;;;;;5062206;28;20177;-73
2021/03/06 03:17:52;;;;;;;8.50;2.38;;;;;;;;;;5054569;28;20597;-73
2021/03/06 03:20:27;;;;;;;5.50;2.97;;;;;;;;;;5055178;28;20197;-72
2021/03/06 03:22:56;;;;;;;5.13;2.60;;;;;;;;;;5037261;28;20209;-74
2021/03/06 03:25:22;;;;;;;9.75;2.60;;;;;;;;;;5059285;28;20627;-74
2021/03/06 03:27:49;;;;;;;6.55;2.88;;;;;;;;;;5054442;28;20209;-73
2021/03/06 03:30:17;;;;;;;6.85;2.65;;;;;;;;;;5050952;28;20173;-73
2021/03/06 03:32:47;;;;;;;8.55;2.63;;;;;;;;;;5054460;28;20218;-73
2021/03/06 03:35:16;;;;;;;4.15;2.50;;;;;;;;;;5041733;28;20176;-74
2021/03/06 03:37:44;;;;;;;6.57;3.00;;;;;;;;;;5059907;28;20235;-74
2021/03/06 03:40:13;;;;;;;6.30;2.85;;;;;;;;;;5054722;28;20576;-74
2021/03/06 03:42:40;;;;;;;5.22;2.70;;;;;;;;;;5054125;28;20208;-74
2021/03/06 03:45:12;;;;;;;7.10;2.30;;;;;;;;;;5052924;28;20242;-74
2021/03/06 03:47:42;;;;;;;7.93;2.60;;;;;;;;;;5052706;28;20640;-74
2021/03/06 03:50:10;;;;;;;4.68;2.25;;;;;;;;;;5053583;28;20178;-74
2021/03/06 03:52:40;;;;;;;5.25;2.30;;;;;;;;;;5063942;28;20243;-75
2021/03/06 03:55:07;;;;;;;4.82;2.03;;;;;;;;;;5053551;28;20177;-75
2021/03/06 03:57:34;;;;;;;9.00;3.00;;;;;;;;;;5053860;28;20224;-73
2021/03/06 04:00:01;;;;;;;5.32;2.30;;;;;;;;;;5052588;28;20542;-74
2021/03/06 04:02:28;;;;;;;7.10;2.50;;;;;;;;;;5054230;28;20188;-73
2021/03/06 04:04:54;;;;;;;11.10;2.90;;;;;;;;;;5053613;28;20189;-73
2021/03/06 04:07:20;;;;;;;4.32;2.67;;;;;;;;;;5053477;28;20208;-74
2021/03/06 04:09:46;;;;;;;4.25;2.25;;;;;;;;;;5053708;28;20332;-73
2021/03/06 04:12:12;;;;;;;5.57;2.38;;;;;;;;;;5061505;28;20238;-73
2021/03/06 04:14:38;;;;;;;4.35;2.30;;;;;;;;;;5065773;28;20283;-74
2021/03/06 04:17:04;;;;;;;8.40;2.97;;;;;;;;;;5053652;28;20302;-74
2021/03/06 04:19:30;;;;;;;7.95;2.63;;;;;;;;;;5053457;28;20180;-74
2021/03/06 04:21:56;;;;;;;4.38;2.65;;;;;;;;;;5051612;28;20189;-74
2021/03/06 04:24:22;;;;;;;12.10;3.17;;;;;;;;;;5051102;28;20193;-74
2021/03/06 04:26:52;;;;;;;7.82;2.95;;;;;;;;;;5053413;28;20176;-73
2021/03/06 04:29:19;;;;;;;5.63;2.90;;;;;;;;;;5049247;28;20204;-73
2021/03/06 04:31:45;;;;;;;4.22;2.58;;;;;;;;;;5061677;28;20176;-74
2021/03/06 04:34:11;;;;;;;5.05;2.40;;;;;;;;;;5070534;28;20199;-75
2021/03/06 04:36:37;;;;;;;5.05;2.72;;;;;;;;;;5073804;28;20176;-74
2021/03/06 04:39:04;;;;;;;8.32;2.63;;;;;;;;;;5062864;28;20295;-75
2021/03/06 04:41:30;;;;;;;5.38;2.92;;;;;;;;;;5053321;28;20177;-74
2021/03/06 04:43:56;;;;;;;5.10;3.22;;;;;;;;;;5052616;28;20211;-73
2021/03/06 04:46:22;;;;;;;5.35;3.05;;;;;;;;;;5053183;28;20208;-73
2021/03/06 04:48:49;;;;;;;3.92;2.60;;;;;;;;;;5053016;28;20198;-73
2021/03/06 04:51:15;;;;;;;10.38;3.65;;;;;;;;;;5053194;28;20584;-74
2021/03/06 04:53:41;;;;;;;14.55;3.80;;;;;;;;;;5051691;28;20193;-72
2021/03/06 04:56:07;;;;;;;6.32;3.95;;;;;;;;;;5053069;28;20173;-73
2021/03/06 04:58:33;;;;;;;7.63;3.95;;;;;;;;;;5053456;28;20188;-76
2021/03/06 05:00:59;;;;;;;6.10;3.55;;;;;;;;;;5053112;28;20204;-73
2021/03/06 05:03:25;;;;;;;10.02;4.32;;;;;;;;;;5053180;28;20208;-73
2021/03/06 05:05:51;;;;;;;5.53;4.22;;;;;;;;;;5049659;28;20197;-74
2021/03/06 05:08:17;;;;;;;10.80;4.47;;;;;;;;;;5052573;28;20258;-72
2021/03/06 05:10:43;;;;;;;8.80;5.22;;;;;;;;;;5049369;28;20256;-74
2021/03/06 05:13:09;;;;;;;11.43;5.30;;;;;;;;;;5052364;28;20200;-72
2021/03/06 05:15:35;;;;;;;8.32;4.80;;;;;;;;;;5055418;28;20174;-73
2021/03/06 05:18:01;;;;;;;9.80;4.50;;;;;;;;;;5058061;28;20204;-73
2021/03/06 05:20:27;;;;;;;7.28;4.72;;;;;;;;;;5052811;28;20192;-74
2021/03/06 05:22:53;;;;;;;6.35;4.55;;;;;;;;;;5051916;28;20201;-74
2021/03/06 05:25:19;;;;;;;13.60;5.00;;;;;;;;;;5052680;28;20263;-72
2021/03/06 05:27:45;;;;;;;9.23;4.50;;;;;;;;;;5052405;28;20200;-74
2021/03/06 05:30:11;;;;;;;11.88;4.55;;;;;;;;;;5052687;28;20173;-72
2021/03/06 05:32:37;;;;;;;8.65;4.20;;;;;;;;;;5052521;28;20205;-75
2021/03/06 05:35:04;;;;;;;8.68;4.55;;;;;;;;;;5051746;28;20177;-74
2021/03/06 05:37:30;;;;;;;7.20;4.25;;;;;;;;;;5052969;28;20211;-74
2021/03/06 05:39:56;;;;;;;7.43;4.78;;;;;;;;;;5052625;28;20204;-71
2021/03/06 05:42:23;;;;;;;7.70;5.45;;;;;;;;;;5052661;28;20177;-74
2021/03/06 05:44:50;;;;;;;9.13;5.30;;;;;;;;;;5056065;28;20195;-73
2021/03/06 05:47:17;;;;;;;15.95;5.38;;;;;;;;;;5072603;28;20180;-74
2021/03/06 05:49:43;;;;;;;11.30;6.32;;;;;;;;;;5061034;28;20208;-73
2021/03/06 05:52:10;;;;;;;9.15;5.30;;;;;;;;;;5068102;28;20181;-72
2021/03/06 05:54:37;;;;;;;10.18;5.60;;;;;;;;;;5055688;28;20193;-73
2021/03/06 05:57:04;;;;;;;11.68;5.90;;;;;;;;;;5056147;28;20181;-74
2021/03/06 05:59:30;;;;;;;7.72;5.50;;;;;;;;;;5056091;28;20180;-73
2021/03/06 06:01:57;;;;;;;9.57;6.68;;;;;;;;;;5056054;28;20315;-73
2021/03/06 06:04:26;;;;;;;8.00;6.13;;;;;;;;;;5055407;28;20600;-74
2021/03/06 06:06:52;;;;;;;11.73;6.03;;;;;;;;;;5052224;28;20177;-73
2021/03/06 06:09:18;;;;;;;10.20;6.50;;;;;;;;;;5057807;28;20204;-73
2021/03/06 06:11:45;;;;;;;12.02;7.05;;;;;;;;;;5067940;28;20530;-73
2021/03/06 06:14:11;;;;;;;13.52;7.40;;;;;;;;;;5067028;28;20189;-73
2021/03/06 06:16:37;;;;;;;11.02;6.85;;;;;;;;;;5055894;28;20227;-74
2021/03/06 06:19:03;;;;;;;11.13;7.10;;;;;;;;;;5056139;28;20185;-74
2021/03/06 06:21:35;;;;;;;12.55;7.57;;;;;;;;;;5056632;28;20610;-74
2021/03/06 06:24:25;;;;;;;9.57;7.22;;;;;;;;;;5054478;28;20212;-74
2021/03/06 06:26:54;;;;;;;9.20;7.05;;;;;;;;;;5048340;28;20569;-74
2021/03/06 06:29:40;;;;;;;11.68;7.75;;;;;;;;;;5055827;28;20232;-73
2021/03/06 06:32:08;;;;;;;12.23;6.88;;;;;;;;;;5052652;28;20187;-74
2021/03/06 06:34:36;;;;;;;18.70;7.40;;;;;;;;;;5055325;28;20197;-74
2021/03/06 06:37:12;;;;;;;13.60;7.15;;;;;;;;;;5055305;28;20185;-73
2021/03/06 06:39:39;;;;;;;13.18;8.25;;;;;;;;;;5055762;28;20185;-73
2021/03/06 06:42:05;;;;;;;13.25;7.85;;;;;;;;;;5055673;28;20483;-73
2021/03/06 06:44:32;;;;;;;13.88;7.80;;;;;;;;;;5054948;28;20615;-72
2021/03/06 06:46:58;;;;;;;10.88;6.85;;;;;;;;;;5050294;28;20264;-73
2021/03/06 06:49:26;;;;;;;11.35;7.50;;;;;;;;;;5065271;28;20204;-73
2021/03/06 06:51:59;;;;;;;10.32;7.88;;;;;;;;;;5055891;28;20212;-74
2021/03/06 06:54:25;;;;;;;12.90;6.30;;;;;;;;;;5056378;28;20231;-72
2021/03/06 06:57:05;;;;;;;12.32;7.45;;;;;;;;;;5042925;28;20259;-74
2021/03/06 06:59:31;;;;;;;14.93;7.28;;;;;;;;;;5055166;28;20564;-73
2021/03/06 07:01:57;;;;;;;13.75;8.25;;;;;;;;;;5054473;28;20188;-73
2021/03/06 07:04:24;;;;;;;16.92;7.47;;;;;;;;;;5053739;28;20674;-74
2021/03/06 07:06:59;;;;;;;14.68;6.80;;;;;;;;;;5055185;28;20189;-74
2021/03/06 07:09:25;;;;;;;9.38;6.93;;;;;;;;;;5054759;28;20212;-73
2021/03/06 07:11:51;;;;;;;12.68;7.40;;;;;;;;;;5054945;28;20196;-73
2021/03/06 07:14:36;;;;;;;9.43;5.90;;;;;;;;;;5050155;28;20334;-73
2021/03/06 07:17:02;;;;;;;10.68;6.03;;;;;;;;;;5050272;28;20265;-74
2021/03/06 07:19:32;;;;;;;15.10;6.25;;;;;;;;;;5054766;28;20177;-74
2021/03/06 07:22:01;;;;;;;13.52;6.32;;;;;;;;;;5054503;28;20180;-73
2021/03/06 07:24:28;;;;;;;18.23;7.50;;;;;;;;;;5048703;28;20562;-72
2021/03/06 07:26:54;;;;;;;9.98;6.80;;;;;;;;;;5054594;28;20173;-73
2021/03/06 07:29:23;;;;;;;14.95;6.43;;;;;;;;;;5054153;28;20239;-72
2021/03/06 07:31:59;;;;;;;16.02;6.55;;;;;;;;;;5054674;28;20569;-72
2021/03/06 07:34:28;;;;;;;13.13;5.78;;;;;;;;;;5046229;28;20227;-74
2021/03/06 07:36:58;;;;;;;14.15;5.43;;;;;;;;;;5053214;28;20634;-74
2021/03/06 07:39:27;;;;;;;7.90;4.90;;;;;;;;;;5054606;28;20234;-75
2021/03/06 07:41:58;;;;;;;8.45;5.13;;;;;;;;;;5054013;28;20173;-74
2021/03/06 07:44:25;;;;;;;11.98;5.53;;;;;;;;;;5053648;28;20666;-74
2021/03/06 07:46:51;;;;;;;11.95;5.40;;;;;;;;;;5053888;28;20192;-74
2021/03/06 07:49:18;;;;;;;25.35;13.98;;;;;;;;;;5054223;28;20212;-74
2021/03/06 07:51:44;;;;;;;10.30;5.72;;;;;;;;;;5054048;28;20173;-73
2021/03/06 07:54:13;;;;;;;11.07;5.80;;;;;;;;;;5047049;28;20217;-73
2021/03/06 07:56:40;;;;;;;18.02;5.82;;;;;;;;;;5055086;28;20256;-75
2021/03/06 07:59:07;;;;;;;13.13;5.80;;;;;;;;;;5054108;28;20208;-74
2021/03/06 08:01:33;;;;;;;10.65;5.20;;;;;;;;;;5046113;28;20622;-73
2021/03/06 08:04:00;;;;;;;12.93;5.93;;;;;;;;;;5053651;28;20232;-74
2021/03/06 08:06:30;;;;;;;11.23;6.05;;;;;;;;;;5053386;28;20200;-74
2021/03/06 08:09:06;;;;;;;14.13;5.72;;;;;;;;;;5053792;28;20558;-75
2021/03/06 08:11:36;;;;;;;12.50;5.72;;;;;;;;;;5053632;28;20534;-73
2021/03/06 08:14:05;;;;;;;13.50;6.25;;;;;;;;;;5052970;28;20239;-74
2021/03/06 08:16:32;;;;;;;11.70;5.70;;;;;;;;;;5058831;28;20222;-74
2021/03/06 08:19:00;;;;;;;12.60;6.72;;;;;;;;;;5053442;28;20181;-74
2021/03/06 08:21:34;;;;;;;9.77;5.15;;;;;;;;;;5055616;28;20184;-74
2021/03/06 08:24:21;;;;;;;9.85;5.65;;;;;;;;;;5051470;28;20204;-73
2021/03/06 08:27:02;;;;;;;13.38;6.95;;;;;;;;;;5057687;28;20250;-75
2021/03/06 08:29:29;;;;;;;9.50;5.32;;;;;;;;;;5053402;28;20612;-74
2021/03/06 08:32:11;;;;;;;9.07;5.85;;;;;;;;;;5051600;28;20173;-74
2021/03/06 08:34:38;;;;;;;9.60;5.93;;;;;;;;;;5053006;28;20210;-74
2021/03/06 08:37:16;;;;;;;10.75;5.55;;;;;;;;;;5052914;28;20177;-73
2021/03/06 08:39:58;;;;;;;13.00;5.85;;;;;;;;;;5048540;28;20204;-76
2021/03/06 08:42:25;;;;;;;12.40;6.43;;;;;;;;;;5052854;28;20181;-73
2021/03/06 08:44:51;;;;;;;9.93;6.50;;;;;;;;;;5052485;28;20259;-75
2021/03/06 08:47:27;;;;;;;9.40;6.22;;;;;;;;;;5044414;28;20176;-74
2021/03/06 08:49:54;;;;;;;13.45;5.75;;;;;;;;;;5051615;28;20177;-75
2021/03/06 08:52:21;;;;;;;8.50;5.25;;;;;;;;;;5052265;28;20541;-75
2021/03/06 08:54:47;;;;;;;9.60;5.00;;;;;;;;;;5052126;28;20185;-74
2021/03/06 08:57:25;;;;;;;5.40;4.45;;;;;;;;;;5052853;28;20502;-74
2021/03/06 08:59:51;;;;;;;6.85;4.97;;;;;;;;;;5050863;28;20515;-74
2021/03/06 09:02:19;;;;;;;7.10;4.05;;;;;;;;;;5050119;28;20173;-74
2021/03/06 09:04:45;;;;;;;5.80;4.43;;;;;;;;;;5052451;28;20189;-75
2021/03/06 09:07:12;;;;;;;7.88;4.00;;;;;;;;;;5052602;28;20173;-74
2021/03/06 09:09:38;;;;;;;5.03;4.03;;;;;;;;;;5052566;28;20176;-75
2021/03/06 09:12:06;;;;;;;6.13;3.65;;;;;;;;;;5062766;28;20164;-74
2021/03/06 09:14:32;;;;;;;4.80;4.28;;;;;;;;;;5058854;28;20538;-74
2021/03/06 09:16:58;;;;;;;6.95;4.43;;;;;;;;;;5072883;28;20549;-75
2021/03/06 09:19:24;;;;;;;6.13;3.50;;;;;;;;;;5055801;28;20653;-75
2021/03/06 09:22:04;;;;;;;5.40;3.35;;;;;;;;;;5044763;28;20208;-77
2021/03/06 09:24:52;;;;;;;5.95;3.67;;;;;;;;;;5054012;28;20204;-76
2021/03/06 09:27:18;;;;;;;7.53;3.75;;;;;;;;;;5061054;28;20705;-75
2021/03/06 09:29:45;;;;;;;3.95;2.92;;;;;;;;;;5052599;28;20185;-73
2021/03/06 09:32:12;;;;;;;5.28;3.38;;;;;;;;;;5052327;28;20183;-75
2021/03/06 09:34:42;;;;;;;4.97;3.00;;;;;;;;;;5052767;28;20203;-75
2021/03/06 09:37:19;;;;;;;4.45;2.58;;;;;;;;;;5039091;28;20205;-76
2021/03/06 09:39:46;;;;;;;3.40;2.60;;;;;;;;;;5057227;28;20276;-74
2021/03/06 09:42:16;;;;;;;3.85;2.13;;;;;;;;;;5038648;28;20177;-76
2021/03/06 09:44:48;;;;;;;3.65;2.35;;;;;;;;;;5070278;28;20180;-75
2021/03/06 09:47:21;;;;;;;7.20;2.65;;;;;;;;;;5048602;28;20177;-74
2021/03/06 09:49:48;;;;;;;5.75;2.70;;;;;;;;;;5065601;28;20271;-73
2021/03/06 09:52:14;;;;;;;5.43;3.45;;;;;;;;;;5051870;28;20172;-75
2021/03/06 09:54:40;;;;;;;8.88;3.28;;;;;;;;;;5052371;28;20205;-74
2021/03/06 09:57:06;;;;;;;5.63;3.40;;;;;;;;;;5052669;28;20641;-73
2021/03/06 09:59:37;;;;;;;5.82;3.08;;;;;;;;;;5052699;28;20312;-73
2021/03/06 10:02:04;;;;;;;6.70;2.85;;;;;;;;;;5052219;28;20187;-75
2021/03/06 10:04:30;;;;;;;7.45;3.45;;;;;;;;;;5051813;28;20219;-76
2021/03/06 10:06:58;;;;;;;5.38;3.78;;;;;;;;;;5049484;28;20205;-75
2021/03/06 10:09:26;;;;;;;5.85;3.70;;;;;;;;;;5052435;28;20878;-76
2021/03/06 10:11:55;;;;;;;5.95;3.95;;;;;;;;;;5054029;28;20600;-75
2021/03/06 10:14:22;;;;;;;9.35;3.92;;;;;;;;;;5066387;28;20196;-74
2021/03/06 10:16:51;;;;;;;6.47;3.85;;;;;;;;;;5052254;28;20604;-73
2021/03/06 10:19:18;;;;;;;6.53;3.67;;;;;;;;;;5052481;28;20185;-76
2021/03/06 10:22:03;;;;;;;5.40;4.13;;;;;;;;;;5051901;28;20216;-75
2021/03/06 10:24:29;;;;;;;8.75;4.80;;;;;;;;;;5051414;28;20291;-76
2021/03/06 10:26:59;;;;;;;4.63;3.67;;;;;;;;;;5052414;28;20694;-75
2021/03/06 10:29:26;;;;;;;9.30;5.85;;;;;;;;;;5051800;28;20205;-75
2021/03/06 10:31:55;;;;;;;21.17;12.82;;;;;;;;;;5052142;28;20181;-76
2021/03/06 10:34:25;;;;;;;8.40;4.47;;;;;;;;;;5051540;28;20205;-75
2021/03/06 10:37:10;;;;;;;7.97;3.97;;;;;;;;;;5050998;28;20201;-74
2021/03/06 10:39:55;;;;;;;4.88;2.83;;;;;;;;;;5052075;28;20189;-74
2021/03/06 10:42:22;;;;;;;6.95;3.78;;;;;;;;;;5051044;28;20208;-74
2021/03/06 10:44:48;;;;;;;5.45;4.00;;;;;;;;;;5050035;28;20189;-76
2021/03/06 10:47:15;;;;;;;6.57;5.95;;;;;;;;;;5048791;28;20707;-74
2021/03/06 10:49:42;;;;;;;5.00;4.18;;;;;;;;;;5051347;28;20262;-75
2021/03/06 10:52:22;;;;;;;5.82;3.33;;;;;;;;;;5042173;28;20508;-74
2021/03/06 10:54:53;;;;;;;4.38;3.08;;;;;;;;;;5049964;28;20176;-75
2021/03/06 10:57:19;;;;;;;2.90;2.10;;;;;;;;;;5049840;28;20302;-74
2021/03/06 10:59:46;;;;;;;5.15;2.95;;;;;;;;;;5049983;28;20184;-74
2021/03/06 11:02:24;;;;;;;8.05;5.15;;;;;;;;;;5051058;28;20185;-75
2021/03/06 11:04:50;;;;;;;28.40;19.35;;;;;;;;;;5039097;28;20203;-76
2021/03/06 11:07:25;;;;;;;6.55;4.60;;;;;;;;;;5050873;28;20180;-74
2021/03/06 11:09:56;;;;;;;9.27;5.80;;;;;;;;;;5051065;28;20204;-74
2021/03/06 11:12:25;;;;;;;6.00;5.05;;;;;;;;;;5046948;28;20192;-75
2021/03/06 11:15:09;;;;;;;7.93;4.70;;;;;;;;;;5050509;28;20173;-75
2021/03/06 11:17:36;;;;;;;7.97;4.85;;;;;;;;;;5051238;28;20686;-75
2021/03/06 11:20:02;;;;;;;5.65;5.10;;;;;;;;;;5051147;28;20181;-76
2021/03/06 11:22:28;;;;;;;9.30;5.18;;;;;;;;;;5050136;28;20188;-75
2021/03/06 11:24:54;;;;;;;6.38;5.57;;;;;;;;;;5050307;28;20683;-74
2021/03/06 11:27:20;;;;;;;7.68;6.45;;;;;;;;;;5051036;28;20711;-74
2021/03/06 11:29:46;;;;;;;6.40;5.60;;;;;;;;;;5049162;28;20212;-73
2021/03/06 11:32:13;;;;;;;6.28;5.18;;;;;;;;;;5050788;28;20173;-75
2021/03/06 11:34:39;;;;;;;12.05;9.43;;;;;;;;;;5050026;28;20204;-73
2021/03/06 11:37:05;;;;;;;9.88;6.70;;;;;;;;;;5057258;28;20541;-75
2021/03/06 11:39:31;;;;;;;7.82;6.18;;;;;;;;;;5070333;28;20192;-75
2021/03/06 11:41:57;;;;;;;6.43;5.07;;;;;;;;;;5055838;28;20184;-77
2021/03/06 11:44:23;;;;;;;5.97;4.60;;;;;;;;;;5050094;28;20221;-75
2021/03/06 11:46:49;;;;;;;5.45;4.10;;;;;;;;;;5050373;28;20592;-74
2021/03/06 11:49:15;;;;;;;5.00;4.50;;;;;;;;;;5049072;28;20684;-72
2021/03/06 11:51:41;;;;;;;7.22;4.57;;;;;;;;;;5042879;28;20246;-77
2021/03/06 11:54:07;;;;;;;5.30;4.28;;;;;;;;;;5049834;28;20196;-76
2021/03/06 11:56:33;;;;;;;5.15;3.28;;;;;;;;;;5050088;28;20515;-72
2021/03/06 11:59:00;;;;;;;4.43;3.90;;;;;;;;;;5050334;28;20537;-75
2021/03/06 12:01:26;;;;;;;4.45;3.15;;;;;;;;;;5050010;28;20646;-74
2021/03/06 12:03:53;;;;;;;8.30;2.85;;;;;;;;;;5047033;28;20240;-74
2021/03/06 12:06:19;;;;;;;5.00;3.47;;;;;;;;;;5036676;28;20204;-77
2021/03/06 12:08:46;;;;;;;7.22;2.70;;;;;;;;;;5050161;28;20807;-74
2021/03/06 12:11:13;;;;;;;8.05;3.65;;;;;;;;;;5048217;28;20180;-77
2021/03/06 12:13:39;;;;;;;8.50;2.72;;;;;;;;;;5044418;28;20199;-76
2021/03/06 12:16:05;;;;;;;5.60;2.45;;;;;;;;;;5056248;28;20920;-76
2021/03/06 12:18:31;;;;;;;3.00;2.55;;;;;;;;;;5059898;28;20574;-76
2021/03/06 12:20:57;;;;;;;4.25;2.55;;;;;;;;;;5049663;28;20238;-77
2021/03/06 12:23:23;;;;;;;4.75;2.22;;;;;;;;;;5049457;28;20243;-79
2021/03/06 12:25:49;;;;;;;5.97;2.50;;;;;;;;;;5050028;28;20177;-75
2021/03/06 12:28:15;;;;;;;2.97;2.10;;;;;;;;;;5049615;28;20208;-75
2021/03/06 12:30:41;;;;;;;4.95;2.92;;;;;;;;;;5049586;28;20177;-76
2021/03/06 12:33:07;;;;;;;3.80;2.45;;;;;;;;;;5042960;28;20243;-77
2021/03/06 12:35:33;;;;;;;4.20;2.10;;;;;;;;;;5069603;28;20766;-76
2021/03/06 12:37:59;;;;;;;6.13;2.65;;;;;;;;;;5065480;28;20541;-76
2021/03/06 12:40:25;;;;;;;4.45;2.30;;;;;;;;;;5069410;28;20180;-77
2021/03/06 12:42:51;;;;;;;3.83;2.38;;;;;;;;;;5051874;28;20205;-74
2021/03/06 12:45:17;;;;;;;6.15;2.60;;;;;;;;;;5049567;28;20191;-74
2021/03/06 12:47:43;;;;;;;5.50;3.08;;;;;;;;;;5049201;28;20200;-76
2021/03/06 12:50:10;;;;;;;5.05;2.60;;;;;;;;;;5049110;28;20176;-79
2021/03/06 12:52:36;;;;;;;6.03;2.17;;;;;;;;;;5049047;28;20216;-76
2021/03/06 12:55:02;;;;;;;7.28;2.58;;;;;;;;;;5048820;28;20216;-76
2021/03/06 12:57:28;;;;;;;7.05;2.40;;;;;;;;;;5049239;28;20661;-78
2021/03/06 12:59:54;;;;;;;6.30;2.50;;;;;;;;;;5048782;28;20255;-77
2021/03/06 13:02:19;;;;;;;4.78;1.90;;;;;;;;;;5048914;28;20181;-75
2021/03/06 13:04:45;;;;;;;3.30;1.92;;;;;;;;;;5048820;28;20218;-76
2021/03/06 13:07:12;;;;;;;4.13;1.85;;;;;;;;;;5049104;28;20191;-78
2021/03/06 13:09:38;;;;;;;4.13;1.60;;;;;;;;;;5049335;28;20561;-77
2021/03/06 13:12:04;;;;;;;5.03;1.60;;;;;;;;;;5049063;28;20185;-77
2021/03/06 13:14:30;;;;;;;3.33;1.58;;;;;;;;;;5048982;28;20203;-75
2021/03/06 13:16:56;;;;;;;5.22;1.73;;;;;;;;;;5060482;28;20214;-79
2021/03/06 13:19:22;;;;;;;3.00;1.75;;;;;;;;;;5069404;28;20176;-77
2021/03/06 13:21:48;;;;;;;2.78;1.55;;;;;;;;;;5068007;28;20590;-76
2021/03/06 13:24:14;;;;;;;2.97;1.40;;;;;;;;;;5044293;28;20656;-75
2021/03/06 13:26:40;;;;;;;3.40;1.50;;;;;;;;;;5069263;28;20191;-76
2021/03/06 13:29:06;;;;;;;2.15;1.30;;;;;;;;;;5037729;28;20211;-77
2021/03/06 13:31:32;;;;;;;2.28;1.25;;;;;;;;;;5048993;28;20199;-76
2021/03/06 13:33:58;;;;;;;5.78;1.92;;;;;;;;;;5048400;28;20217;-76
2021/03/06 13:36:24;;;;;;;3.25;1.38;;;;;;;;;;5048944;28;20588;-76
2021/03/06 13:38:50;;;;;;;5.10;2.00;;;;;;;;;;5048973;28;20207;-76
2021/03/06 13:41:16;;;;;;;3.58;1.40;;;;;;;;;;5048674;28;20188;-76
2021/03/06 13:43:42;;;;;;;2.72;1.70;;;;;;;;;;5048270;28;20213;-78
2021/03/06 13:46:08;;;;;;;2.40;1.25;;;;;;;;;;5048757;28;20181;-76
2021/03/06 13:48:34;;;;;;;5.07;1.30;;;;;;;;;;5048373;28;20235;-77
2021/03/06 13:51:00;;;;;;;3.00;2.10;;;;;;;;;;5048790;28;20419;-77
2021/03/06 13:53:26;;;;;;;3.40;1.57;;;;;;;;;;5048654;28;20451;-76
2021/03/06 13:55:52;;;;;;;2.50;1.40;;;;;;;;;;5049003;28;20466;-76
2021/03/06 13:58:18;;;;;;;2.73;1.53;;;;;;;;;;5048685;28;20851;-75
2021/03/06 14:00:44;;;;;;;3.57;1.50;;;;;;;;;;5048625;28;20431;-77
2021/03/06 14:03:10;;;;;;;2.80;1.42;;;;;;;;;;5048299;28;20431;-77
2021/03/06 14:05:36;;;;;;;2.95;1.80;;;;;;;;;;5048376;28;20193;-75
2021/03/06 14:08:02;;;;;;;2.90;1.70;;;;;;;;;;5048778;28;20945;-76
2021/03/06 14:10:28;;;;;;;4.80;1.60;;;;;;;;;;5046851;28;20189;-76
2021/03/06 14:12:55;;;;;;;3.45;1.80;;;;;;;;;;5051251;28;20204;-75
2021/03/06 14:15:21;;;;;;;2.70;1.50;;;;;;;;;;5051950;28;20173;-78
2021/03/06 14:17:47;;;;;;;2.33;1.60;;;;;;;;;;5052269;28;20181;-77
2021/03/06 14:20:13;;;;;;;3.85;1.40;;;;;;;;;;5052059;28;20650;-75
2021/03/06 14:22:39;;;;;;;3.28;1.50;;;;;;;;;;5051793;28;20515;-74
2021/03/06 14:25:07;;;;;;;3.10;1.50;;;;;;;;;;5051894;28;20188;-76
2021/03/06 14:27:33;;;;;;;2.60;1.58;;;;;;;;;;5051719;28;20217;-74
2021/03/06 14:29:59;;;;;;;3.05;1.40;;;;;;;;;;5051890;28;20182;-77
2021/03/06 14:32:25;;;;;;;3.63;1.70;;;;;;;;;;5051676;28;20229;-74
2021/03/06 14:34:51;;;;;;;4.32;1.90;;;;;;;;;;5051854;28;20177;-76
2021/03/06 14:37:17;;;;;;;3.47;1.40;;;;;;;;;;5050970;28;20181;-77
2021/03/06 14:39:45;;;;;;;3.60;1.58;;;;;;;;;;5062537;28;20184;-74
2021/03/06 14:42:11;;;;;;;2.90;1.40;;;;;;;;;;5060340;28;20173;-75
2021/03/06 14:44:37;;;;;;;3.65;1.40;;;;;;;;;;5050605;28;20577;-74